Map

Track Data

SID SEASON NUMBER BASIN SUBBASIN NAME ISO_TIME NATURE LAT LON WMO_WIND WMO_PRES WMO_AGENCY TRACK_TYPE DIST2LAND LANDFALL IFLAG USA_AGENCY USA_ATCF_ID USA_LAT USA_LON USA_RECORD USA_STATUS USA_WIND USA_PRES USA_SSHS USA_R34_NE USA_R34_SE USA_R34_SW USA_R34_NW USA_R50_NE USA_R50_SE USA_R50_SW USA_R50_NW USA_R64_NE USA_R64_SE USA_R64_SW USA_R64_NW USA_POCI USA_ROCI USA_RMW USA_EYE TOKYO_LAT TOKYO_LON TOKYO_GRADE TOKYO_WIND TOKYO_PRES TOKYO_R50_DIR TOKYO_R50_LONG TOKYO_R50_SHORT TOKYO_R30_DIR TOKYO_R30_LONG TOKYO_R30_SHORT TOKYO_LAND CMA_LAT CMA_LON CMA_CAT CMA_WIND CMA_PRES HKO_LAT HKO_LON HKO_CAT HKO_WIND HKO_PRES NEWDELHI_LAT NEWDELHI_LON NEWDELHI_GRADE NEWDELHI_WIND NEWDELHI_PRES NEWDELHI_CI NEWDELHI_DP NEWDELHI_POCI REUNION_LAT REUNION_LON REUNION_TYPE REUNION_WIND REUNION_PRES REUNION_TNUM REUNION_CI REUNION_RMW REUNION_R34_NE REUNION_R34_SE REUNION_R34_SW REUNION_R34_NW REUNION_R50_NE REUNION_R50_SE REUNION_R50_SW REUNION_R50_NW REUNION_R64_NE REUNION_R64_SE REUNION_R64_SW REUNION_R64_NW BOM_LAT BOM_LON BOM_TYPE BOM_WIND BOM_PRES BOM_TNUM BOM_CI BOM_RMW BOM_R34_NE BOM_R34_SE BOM_R34_SW BOM_R34_NW BOM_R50_NE BOM_R50_SE BOM_R50_SW BOM_R50_NW BOM_R64_NE BOM_R64_SE BOM_R64_SW BOM_R64_NW BOM_ROCI BOM_POCI BOM_EYE BOM_POS_METHOD BOM_PRES_METHOD NADI_LAT NADI_LON NADI_CAT NADI_WIND NADI_PRES WELLINGTON_LAT WELLINGTON_LON WELLINGTON_WIND WELLINGTON_PRES DS824_LAT DS824_LON DS824_STAGE DS824_WIND DS824_PRES TD9636_LAT TD9636_LON TD9636_STAGE TD9636_WIND TD9636_PRES TD9635_LAT TD9635_LON TD9635_WIND TD9635_PRES TD9635_ROCI NEUMANN_LAT NEUMANN_LON NEUMANN_CLASS NEUMANN_WIND NEUMANN_PRES MLC_LAT MLC_LON MLC_CLASS MLC_WIND MLC_PRES USA_GUST BOM_GUST BOM_GUST_PER REUNION_GUST REUNION_GUST_PER USA_SEAHGT USA_SEARAD_NE USA_SEARAD_SE USA_SEARAD_SW USA_SEARAD_NW STORM_SPEED STORM_DIR
1918273N14130 1918 61 WP MM NOT_NAMED 1918-09-29 22:00:00 NR 14.2000 129.700 main 507 497 __________O___ -1 14.2000 129.700 7 4 306
1918273N14130 1918 61 WP MM NOT_NAMED 1918-09-30 00:00:00 NR 14.2700 129.599 main 502 488 __________P___ -1 14.2700 129.599 7 4 306
1918273N14130 1918 61 WP MM NOT_NAMED 1918-09-30 03:00:00 NR 14.3736 129.448 main 488 479 __________P___ -1 14.3736 129.448 7 4 305
1918273N14130 1918 61 WP MM NOT_NAMED 1918-09-30 06:00:00 NR 14.4741 129.298 main 485 473 __________P___ -1 14.4741 129.298 7 4 304
1918273N14130 1918 61 WP MM NOT_NAMED 1918-09-30 09:00:00 NR 14.5696 129.149 main 473 473 __________P___ -1 14.5696 129.149 7 3 304
1918273N14130 1918 61 WP MM NOT_NAMED 1918-09-30 10:00:00 NR 14.6000 129.100 main 473 464 __________O___ -1 14.6000 129.100 7 3 302
1918273N14130 1918 61 WP MM NOT_NAMED 1918-09-30 12:00:00 NR 14.6588 129.003 main 470 462 __________P___ -1 14.6588 129.003 7 3 302
1918273N14130 1918 61 WP MM NOT_NAMED 1918-09-30 15:00:00 NR 14.7468 128.856 main 462 452 __________P___ -1 14.7468 128.856 7 3 303
1918273N14130 1918 61 WP MM NOT_NAMED 1918-09-30 18:00:00 NR 14.8429 128.708 main 452 451 __________P___ -1 14.8429 128.708 7 4 306
1918273N14130 1918 61 WP MM NOT_NAMED 1918-09-30 21:00:00 NR 14.9566 128.553 main 458 451 __________P___ -1 14.9566 128.553 7 4 308
1918273N14130 1918 61 WP MM NOT_NAMED 1918-09-30 22:00:00 NR 15.0000 128.500 main 451 443 __________O___ -1 15.0000 128.500 7 4 312
1918273N14130 1918 61 WP MM NOT_NAMED 1918-10-01 00:00:00 NR 15.0995 128.392 main 451 434 __________P___ -1 15.0995 128.392 7 5 315
1918273N14130 1918 61 WP MM NOT_NAMED 1918-10-01 03:00:00 NR 15.2677 128.223 main 438 426 __________P___ -1 15.2677 128.223 7 5 316
1918273N14130 1918 61 WP MM NOT_NAMED 1918-10-01 06:00:00 NR 15.4503 128.047 main 426 421 __________P___ -1 15.4503 128.047 7 5 317
1918273N14130 1918 61 WP MM NOT_NAMED 1918-10-01 09:00:00 NR 15.6380 127.863 main 421 417 __________P___ -1 15.6380 127.863 7 5 316
1918273N14130 1918 61 WP MM NOT_NAMED 1918-10-01 10:00:00 NR 15.7000 127.800 main 417 408 __________O___ -1 15.7000 127.800 7 5 313
1918273N14130 1918 61 WP MM NOT_NAMED 1918-10-01 12:00:00 NR 15.8114 127.667 main 413 401 __________P___ -1 15.8114 127.667 7 5 310
1918273N14130 1918 61 WP MM NOT_NAMED 1918-10-01 15:00:00 NR 15.9785 127.461 main 407 397 __________P___ -1 15.9785 127.461 7 5 311
1918273N14130 1918 61 WP MM NOT_NAMED 1918-10-01 18:00:00 NR 16.1509 127.256 main 404 395 __________P___ -1 16.1509 127.256 7 5 313
1918273N14130 1918 61 WP MM NOT_NAMED 1918-10-01 21:00:00 NR 16.3350 127.061 main 395 395 __________P___ -1 16.3350 127.061 7 5 315
1918273N14130 1918 61 WP MM NOT_NAMED 1918-10-01 22:00:00 NR 16.4000 127.000 main 395 395 __________O___ -1 16.4000 127.000 3 5 320
1918273N14130 1918 61 WP MM NOT_NAMED 1918-10-02 00:00:00 NR 16.5359 126.888 main 395 395 __________P___ -1 16.5359 126.888 3 5 324
1918273N14130 1918 61 WP MM NOT_NAMED 1918-10-02 03:00:00 NR 16.7523 126.734 main 405 405 __________P___ -1 16.7523 126.734 3 5 327
1918273N14130 1918 61 WP MM NOT_NAMED 1918-10-02 06:00:00 NR 16.9811 126.589 main 416 410 __________P___ -1 16.9811 126.589 3 5 330
1918273N14130 1918 61 WP MM NOT_NAMED 1918-10-02 09:00:00 NR 17.2192 126.447 main 415 415 __________P___ -1 17.2192 126.447 3 6 330
1918273N14130 1918 61 WP MM NOT_NAMED 1918-10-02 10:00:00 NR 17.3000 126.400 main 415 406 __________O___ -1 17.3000 126.400 4 6 330
1918273N14130 1918 61 WP MM NOT_NAMED 1918-10-02 12:00:00 NR 17.4609 126.297 main 407 390 __________P___ -1 17.4609 126.297 4 6 329
1918273N14130 1918 61 WP MM NOT_NAMED 1918-10-02 15:00:00 NR 17.7087 126.143 main 390 384 __________P___ -1 17.7087 126.143 4 6 330
1918273N14130 1918 61 WP MM NOT_NAMED 1918-10-02 18:00:00 NR 17.9612 125.992 main 387 369 __________P___ -1 17.9612 125.992 4 6 331
1918273N14130 1918 61 WP MM NOT_NAMED 1918-10-02 21:00:00 NR 18.2154 125.847 main 369 369 __________P___ -1 18.2154 125.847 4 6 332
1918273N14130 1918 61 WP MM NOT_NAMED 1918-10-02 22:00:00 NR 18.3000 125.800 main 369 358 __________O___ -1 18.3000 125.800 4 6 333
1918273N14130 1918 61 WP MM NOT_NAMED 1918-10-03 00:00:00 NR 18.4719 125.711 main 358 348 __________P___ -1 18.4719 125.711 4 6 334
1918273N14130 1918 61 WP MM NOT_NAMED 1918-10-03 03:00:00 NR 18.7298 125.584 main 349 340 __________P___ -1 18.7298 125.584 4 6 335
1918273N14130 1918 61 WP MM NOT_NAMED 1918-10-03 06:00:00 NR 18.9824 125.461 main 343 328 __________P___ -1 18.9824 125.461 4 5 335
1918273N14130 1918 61 WP MM NOT_NAMED 1918-10-03 09:00:00 NR 19.2234 125.340 main 328 328 __________P___ -1 19.2234 125.340 4 5 335
1918273N14130 1918 61 WP MM NOT_NAMED 1918-10-03 10:00:00 NR 19.3000 125.300 main 331 324 __________O___ -1 19.3000 125.300 4 5 331
1918273N14130 1918 61 WP MM NOT_NAMED 1918-10-03 12:00:00 NR 19.4342 125.217 main 324 319 __________P___ -1 19.4342 125.217 4 5 328
1918273N14130 1918 61 WP MM NOT_NAMED 1918-10-03 15:00:00 NR 19.6228 125.091 main 323 318 __________P___ -1 19.6228 125.091 4 4 328
1918273N14130 1918 61 WP MM NOT_NAMED 1918-10-03 18:00:00 NR 19.8126 124.966 main 324 314 __________P___ -1 19.8126 124.966 4 5 330
1918273N14130 1918 61 WP MM NOT_NAMED 1918-10-03 21:00:00 NR 20.0224 124.842 main 317 317 __________P___ -1 20.0224 124.842 4 5 331
1918273N14130 1918 61 WP MM NOT_NAMED 1918-10-03 22:00:00 NR 20.1000 124.800 main 324 322 __________O___ -1 20.1000 124.800 4 6 336
1918273N14130 1918 61 WP MM NOT_NAMED 1918-10-04 00:00:00 NR 20.2824 124.714 main 329 328 __________P___ -1 20.2824 124.714 4 6 337
1918273N14130 1918 61 WP MM NOT_NAMED 1918-10-04 03:00:00 NR 20.5814 124.585 main 344 344 __________P___ -1 20.5814 124.585 4 7 339
1918273N14130 1918 61 WP MM NOT_NAMED 1918-10-04 06:00:00 NR 20.8941 124.459 main 362 355 __________P___ -1 20.8941 124.459 4 7 340
1918273N14130 1918 61 WP MM NOT_NAMED 1918-10-04 09:00:00 NR 21.2018 124.338 main 360 357 __________P___ -1 21.2018 124.338 4 7 340
1918273N14130 1918 61 WP MM NOT_NAMED 1918-10-04 10:00:00 NR 21.3000 124.300 main 357 338 __________O___ -1 21.3000 124.300 4 5 339
1918273N14130 1918 61 WP MM NOT_NAMED 1918-10-04 12:00:00 NR 21.4518 124.235 main 338 318 __________P___ -1 21.4518 124.235 4 5 339
1918273N14130 1918 61 WP MM NOT_NAMED 1918-10-04 15:00:00 NR 21.6663 124.144 main 318 308 __________P___ -1 21.6663 124.144 4 5 339
1918273N14130 1918 61 WP MM NOT_NAMED 1918-10-04 18:00:00 NR 21.8984 124.051 main 308 275 __________P___ -1 21.8984 124.051 4 6 340
1918273N14130 1918 61 WP MM NOT_NAMED 1918-10-04 21:00:00 NR 22.1856 123.942 main 275 271 __________P___ -1 22.1856 123.942 4 6 341
1918273N14130 1918 61 WP MM NOT_NAMED 1918-10-04 22:00:00 NR 22.3000 123.900 main 271 252 __________O___ -1 22.3000 123.900 4 8 340
1918273N14130 1918 61 WP MM NOT_NAMED 1918-10-05 00:00:00 NR 22.5816 123.791 main 252 224 __________P___ -1 22.5816 123.791 4 10 341
1918273N14130 1918 61 WP MM NOT_NAMED 1918-10-05 03:00:00 NR 23.0672 123.607 main 224 182 __________P___ -1 23.0672 123.607 4 11 341
1918273N14130 1918 61 WP MM NOT_NAMED 1918-10-05 06:00:00 NR 23.5951 123.419 main 182 139 __________P___ -1 23.5951 123.419 4 11 343
1918273N14130 1918 61 WP MM NOT_NAMED 1918-10-05 09:00:00 NR 24.1278 123.249 main 139 133 __________P___ -1 24.1278 123.249 4 11 344
1918273N14130 1918 61 WP MM NOT_NAMED 1918-10-05 10:00:00 NR 24.3000 123.200 main 133 119 __________O___ -1 24.3000 123.200 4 10 347
1918273N14130 1918 61 WP MM NOT_NAMED 1918-10-05 12:00:00 NR 24.6304 123.117 main 119 100 __________P___ -1 24.6304 123.117 4 10 349
1918273N14130 1918 61 WP MM NOT_NAMED 1918-10-05 15:00:00 NR 25.0959 123.026 main 101 101 __________P___ -1 25.0959 123.026 4 9 351
1918273N14130 1918 61 WP MM NOT_NAMED 1918-10-05 18:00:00 NR 25.5353 122.962 main 114 119 __________P___ -1 25.5353 122.962 4 9 354
1918273N14130 1918 61 WP MM NOT_NAMED 1918-10-05 21:00:00 NR 25.9599 122.914 main 143 143 __________P___ -1 25.9599 122.914 4 9 354
1918273N14130 1918 61 WP MM NOT_NAMED 1918-10-05 22:00:00 NR 26.1000 122.900 main 152 __________O___ -1 26.1000 122.900 4 8 349

Digital Typhoon Data and Search

About IBTrACS Database

This database is a web-friendly format of International Best Track Archive for Climate Stewardship (IBTrACS), a global best track data archive curated by NOAA dating back to 1842.

Updated: 2021-11-26